Terminal Aerodrome Forecast
Issued by NWS

Home | Current Version | Previous Version | Text Only | Print | Product List | Glossary On
Versions: 1 2 3 4 5 6 7 8 9 10 11 12 13 14 15 16 17 18 19 20 21 22 23 24 25 26 27 28 29 30 31 32 33 34
000
FTUS43 KSGF 200939 AAA
TAFJLN
TAF AMD
KJLN 200939Z 2010/2106 19018G26KT P6SM VCTS BKN030 OVC035CB
      WS020/21050KT
     FM201400 20015G27KT 5SM SHRA VCTS OVC015CB
     FM201700 35011G18KT 1 1/2SM SHRA OVC010
     FM201900 36012G19KT 1SM SHRA OVC008
     FM210000 36011G18KT 3SM -SHRA OVC010
     FM210300 36012G22KT P6SM -SHRA OVC020=

USA.gov is the U.S. government's official web portal to all federal, state and local government web resources and services.